createdAt,value
2018-11-13T00:00:28.605Z,16.33
2018-11-13T00:01:43.258Z,16.33
2018-11-13T00:02:57.639Z,16.36
2018-11-13T00:04:12.908Z,16.37
2018-11-13T00:05:27.258Z,16.37
2018-11-13T00:06:42.128Z,16.38
2018-11-13T00:07:57.432Z,16.36
2018-11-13T00:09:12.029Z,16.34
2018-11-13T00:10:27.687Z,16.32
2018-11-13T00:11:42.856Z,16.31
2018-11-13T00:12:57.355Z,16.29
2018-11-13T00:14:11.691Z,16.29
2018-11-13T00:15:26.281Z,16.3
2018-11-13T00:16:41.173Z,16.32
2018-11-13T00:17:55.773Z,16.33
2018-11-13T00:19:10.138Z,16.32
2018-11-13T00:20:24.602Z,16.29
2018-11-13T00:21:39.490Z,16.28
2018-11-13T00:22:54.593Z,16.25
2018-11-13T00:24:09.512Z,16.23
2018-11-13T00:25:24.348Z,16.21
2018-11-13T00:26:38.449Z,16.2
2018-11-13T00:27:53.578Z,16.17
2018-11-13T00:29:08.750Z,16.14
2018-11-13T00:30:24.786Z,16.11
2018-11-13T00:31:39.304Z,16.06
2018-11-13T00:32:54.083Z,16.02
2018-11-13T00:34:08.422Z,15.98
2018-11-13T00:35:23.680Z,15.94
2018-11-13T00:36:38.579Z,15.93
2018-11-13T00:37:53.450Z,15.93
2018-11-13T00:39:07.873Z,15.94
2018-11-13T00:40:24.102Z,15.97
2018-11-13T00:41:38.730Z,16
2018-11-13T00:42:54.160Z,16.03
2018-11-13T00:44:09.041Z,16.07
2018-11-13T00:45:24.369Z,16.11
2018-11-13T00:46:39.815Z,16.13
2018-11-13T00:47:54.453Z,16.16
2018-11-13T00:49:09.184Z,16.17
2018-11-13T00:50:23.769Z,16.18
2018-11-13T00:51:38.844Z,16.22
2018-11-13T00:52:53.949Z,16.25
2018-11-13T00:54:08.838Z,16.27
2018-11-13T00:55:23.406Z,16.29
2018-11-13T00:56:38.098Z,16.32
2018-11-13T00:57:53.279Z,16.3
2018-11-13T00:59:07.601Z,16.29
2018-11-13T01:00:22.728Z,16.24
2018-11-13T01:01:37.036Z,16.21
2018-11-13T01:02:51.615Z,16.18
2018-11-13T01:04:06.403Z,16.16
2018-11-13T01:05:21.035Z,16.15
2018-11-13T01:06:36.468Z,16.13
2018-11-13T01:07:52.139Z,16.1
2018-11-13T01:09:07.018Z,16.09
2018-11-13T01:10:22.000Z,16.07
2018-11-13T01:11:36.374Z,16.06
2018-11-13T01:12:51.399Z,16.06
2018-11-13T01:14:06.654Z,16.05
2018-11-13T01:15:21.027Z,16.05
2018-11-13T01:16:35.508Z,16.08
2018-11-13T01:17:50.119Z,16.08
2018-11-13T01:19:05.198Z,16.08
2018-11-13T01:20:20.602Z,16.06
2018-11-13T01:21:34.930Z,16.06
2018-11-13T01:22:49.554Z,16.07
2018-11-13T01:24:05.176Z,16.05
2018-11-13T01:25:19.851Z,16.06
2018-11-13T01:26:34.767Z,16.06
2018-11-13T01:27:48.610Z,16.07
2018-11-13T01:29:03.217Z,16.07
2018-11-13T01:30:17.969Z,16.07
2018-11-13T01:31:38.034Z,16.05
2018-11-13T01:32:52.705Z,16
2018-11-13T01:34:07.355Z,15.96
2018-11-13T01:35:21.974Z,15.94
2018-11-13T01:36:36.165Z,15.91
2018-11-13T01:37:51.090Z,15.89
2018-11-13T01:39:05.494Z,15.86
2018-11-13T01:40:19.819Z,15.85
2018-11-13T01:41:34.349Z,15.83
2018-11-13T01:42:48.816Z,15.81
2018-11-13T01:44:03.194Z,15.78
2018-11-13T01:45:17.578Z,15.77
2018-11-13T01:46:32.459Z,15.74
2018-11-13T01:47:47.342Z,15.73
2018-11-13T01:49:02.152Z,15.72
2018-11-13T01:50:16.759Z,15.72
2018-11-13T01:51:31.641Z,15.73
2018-11-13T01:52:46.182Z,15.73
2018-11-13T01:54:00.953Z,15.69
2018-11-13T01:55:15.082Z,15.69
2018-11-13T01:56:30.115Z,15.67
2018-11-13T01:57:45.425Z,15.65
2018-11-13T01:58:59.242Z,15.62
2018-11-13T02:00:13.588Z,15.6
2018-11-13T02:01:28.381Z,15.57
2018-11-13T02:02:42.770Z,15.55
2018-11-13T02:03:57.774Z,15.52
2018-11-13T02:05:37.820Z,15.52
2018-11-13T02:06:52.237Z,15.53
2018-11-13T02:08:07.279Z,15.58
2018-11-13T02:09:22.113Z,15.59
2018-11-13T02:10:36.682Z,15.63
2018-11-13T02:11:51.686Z,15.63
2018-11-13T02:13:05.945Z,15.65
2018-11-13T02:14:20.895Z,15.66
2018-11-13T02:15:35.238Z,15.67
2018-11-13T02:16:50.114Z,15.67
2018-11-13T02:18:05.085Z,15.7
2018-11-13T02:19:19.814Z,15.72
2018-11-13T02:20:34.198Z,15.71
2018-11-13T02:21:49.307Z,15.71
2018-11-13T02:23:03.824Z,15.71
2018-11-13T02:24:18.421Z,15.7
2018-11-13T02:25:35.797Z,15.69
2018-11-13T02:26:50.978Z,15.7
2018-11-13T02:28:05.717Z,15.67
2018-11-13T02:29:20.117Z,15.64
2018-11-13T02:30:34.214Z,15.61
2018-11-13T02:31:49.120Z,15.6
2018-11-13T02:33:04.278Z,15.57
2018-11-13T02:34:18.633Z,15.54
2018-11-13T02:35:33.170Z,15.5
2018-11-13T02:36:48.265Z,15.47
2018-11-13T02:38:03.169Z,15.46
2018-11-13T02:39:18.071Z,15.45
2018-11-13T02:40:32.666Z,15.44
2018-11-13T02:41:47.273Z,15.44
2018-11-13T02:43:01.788Z,15.41
2018-11-13T02:44:15.872Z,15.4
2018-11-13T02:45:30.762Z,15.38
2018-11-13T02:46:46.319Z,15.37
2018-11-13T02:48:01.349Z,15.36
2018-11-13T02:49:15.924Z,15.35
2018-11-13T02:50:30.533Z,15.34
2018-11-13T02:51:45.949Z,15.35
2018-11-13T02:53:00.893Z,15.36
2018-11-13T02:54:16.000Z,15.34
2018-11-13T02:55:30.610Z,15.32
2018-11-13T02:56:46.373Z,15.32
2018-11-13T02:58:01.603Z,15.31
2018-11-13T02:59:15.909Z,15.3
2018-11-13T03:00:29.983Z,15.3
2018-11-13T03:01:44.841Z,15.26
2018-11-13T03:02:59.453Z,15.25
2018-11-13T03:04:14.609Z,15.24
2018-11-13T03:05:29.182Z,15.23
2018-11-13T03:06:43.558Z,15.22
2018-11-13T03:07:57.832Z,15.24
2018-11-13T03:09:12.537Z,15.27
2018-11-13T03:10:28.010Z,15.27
2018-11-13T03:11:42.904Z,15.26
2018-11-13T03:12:57.485Z,15.25
2018-11-13T03:14:11.588Z,15.24
2018-11-13T03:15:26.485Z,15.23
2018-11-13T03:16:40.569Z,15.24
2018-11-13T03:17:55.146Z,15.23
2018-11-13T03:19:09.732Z,15.24
2018-11-13T03:20:24.058Z,15.23
2018-11-13T03:21:39.466Z,15.23
2018-11-13T03:22:53.815Z,15.2
2018-11-13T03:24:08.799Z,15.18
2018-11-13T03:25:23.629Z,15.16
2018-11-13T03:26:38.741Z,15.15
2018-11-13T03:27:53.256Z,15.14
2018-11-13T03:29:08.250Z,15.13
2018-11-13T03:30:23.126Z,15.1
2018-11-13T03:31:37.604Z,15.09
2018-11-13T03:32:51.340Z,15.09
2018-11-13T03:34:05.782Z,15.07
2018-11-13T03:35:20.537Z,15.06
2018-11-13T03:36:35.664Z,15.06
2018-11-13T03:37:49.717Z,15.06
2018-11-13T03:39:04.577Z,15.05
2018-11-13T03:40:21.421Z,15.03
2018-11-13T03:41:35.758Z,15.02
2018-11-13T03:42:50.074Z,15.01
2018-11-13T03:44:04.410Z,15.01
2018-11-13T03:45:18.822Z,15.02
2018-11-13T03:46:33.760Z,15.01
2018-11-13T03:47:48.639Z,14.97
2018-11-13T03:49:03.765Z,14.92
2018-11-13T03:50:18.136Z,14.91
2018-11-13T03:51:32.523Z,14.88
2018-11-13T03:52:46.883Z,14.84
2018-11-13T03:54:01.522Z,14.81
2018-11-13T03:55:16.082Z,14.79
2018-11-13T03:56:30.690Z,14.78
2018-11-13T03:57:45.797Z,14.77
2018-11-13T03:59:00.636Z,14.75
2018-11-13T04:00:15.867Z,14.73
2018-11-13T04:01:30.436Z,14.72
2018-11-13T04:02:44.782Z,14.72
2018-11-13T04:03:59.941Z,14.71
2018-11-13T04:05:14.376Z,14.7
2018-11-13T04:06:28.979Z,14.7
2018-11-13T04:07:43.335Z,14.71
2018-11-13T04:08:57.672Z,14.72
2018-11-13T04:10:12.716Z,14.72
2018-11-13T04:11:27.683Z,14.7
2018-11-13T04:12:55.742Z,14.71
2018-11-13T04:14:10.086Z,14.73
2018-11-13T04:15:25.356Z,14.75
2018-11-13T04:16:39.949Z,14.75
2018-11-13T04:17:54.014Z,14.77
2018-11-13T04:19:08.954Z,14.79
2018-11-13T04:20:23.893Z,14.8
2018-11-13T04:21:38.736Z,14.8
2018-11-13T04:22:54.039Z,14.81
2018-11-13T04:24:08.440Z,14.8
2018-11-13T04:25:24.049Z,14.81
2018-11-13T04:26:38.461Z,14.8
2018-11-13T04:27:52.540Z,14.82
2018-11-13T04:29:07.553Z,14.84
2018-11-13T04:30:40.966Z,14.84
2018-11-13T04:31:55.706Z,14.83
2018-11-13T04:33:09.785Z,14.82
2018-11-13T04:34:24.643Z,14.84
2018-11-13T04:35:39.086Z,14.83
2018-11-13T04:36:54.225Z,14.82
2018-11-13T04:38:08.574Z,14.81
2018-11-13T04:39:22.920Z,14.81
2018-11-13T04:40:37.800Z,14.82
2018-11-13T04:41:53.287Z,14.81
2018-11-13T04:43:07.933Z,14.79
2018-11-13T04:44:22.810Z,14.79
2018-11-13T04:45:37.569Z,14.77
2018-11-13T04:46:52.545Z,14.76
2018-11-13T04:48:07.790Z,14.76
2018-11-13T04:49:22.918Z,14.77
2018-11-13T04:50:36.710Z,14.78
2018-11-13T04:51:51.451Z,14.81
2018-11-13T04:53:06.044Z,14.81
2018-11-13T04:54:20.391Z,14.82
2018-11-13T04:55:35.531Z,14.83
2018-11-13T04:56:50.491Z,14.84
2018-11-13T04:58:04.838Z,14.84
2018-11-13T04:59:19.691Z,14.83
2018-11-13T05:00:34.035Z,14.84
2018-11-13T05:01:49.252Z,14.82
2018-11-13T05:03:04.215Z,14.83
2018-11-13T05:04:18.404Z,14.83
2018-11-13T05:05:37.817Z,14.85
2018-11-13T05:06:53.036Z,14.85
2018-11-13T05:08:07.898Z,14.85
2018-11-13T05:09:21.973Z,14.83
2018-11-13T05:10:36.843Z,14.83
2018-11-13T05:11:51.649Z,14.8
2018-11-13T05:13:06.249Z,14.79
2018-11-13T05:14:21.438Z,14.77
2018-11-13T05:15:35.769Z,14.77
2018-11-13T05:16:50.776Z,14.74
2018-11-13T05:18:05.846Z,14.72
2018-11-13T05:19:20.163Z,14.69
2018-11-13T05:20:34.876Z,14.66
2018-11-13T05:21:49.547Z,14.66
2018-11-13T05:23:04.796Z,14.66
2018-11-13T05:24:20.560Z,14.67
2018-11-13T05:25:34.638Z,14.67
2018-11-13T05:26:49.261Z,14.66
2018-11-13T05:28:03.613Z,14.65
2018-11-13T05:29:18.192Z,14.64
2018-11-13T05:30:32.283Z,14.63
2018-11-13T05:31:46.906Z,14.61
2018-11-13T05:33:02.225Z,14.62
2018-11-13T05:34:18.013Z,14.62
2018-11-13T05:35:34.633Z,14.62
2018-11-13T05:36:50.689Z,14.6
2018-11-13T05:38:06.077Z,14.58
2018-11-13T05:39:21.084Z,14.54
2018-11-13T05:40:36.249Z,14.52
2018-11-13T05:41:51.322Z,14.5
2018-11-13T05:43:06.692Z,14.5
2018-11-13T05:44:22.657Z,14.48
2018-11-13T05:45:38.697Z,14.47
2018-11-13T05:46:54.515Z,14.47
2018-11-13T05:48:10.154Z,14.47
2018-11-13T05:49:23.952Z,14.45
2018-11-13T05:50:38.705Z,14.41
2018-11-13T05:51:53.453Z,14.39
2018-11-13T05:53:07.803Z,14.37
2018-11-13T05:54:22.400Z,14.38
2018-11-13T05:55:36.441Z,14.36
2018-11-13T05:56:51.013Z,14.36
2018-11-13T05:58:06.117Z,14.35
2018-11-13T05:59:20.730Z,14.36
2018-11-13T06:00:35.171Z,14.36
2018-11-13T06:01:49.234Z,14.39
2018-11-13T06:03:04.221Z,14.4
2018-11-13T06:04:19.086Z,14.41
2018-11-13T06:05:33.163Z,14.43
2018-11-13T06:06:48.136Z,14.45
2018-11-13T06:08:02.838Z,14.47
2018-11-13T06:09:17.456Z,14.46
2018-11-13T06:10:32.185Z,14.45
2018-11-13T06:11:47.073Z,14.44
2018-11-13T06:13:01.025Z,14.45
2018-11-13T06:14:15.987Z,14.45
2018-11-13T06:15:30.653Z,14.47
2018-11-13T06:16:45.022Z,14.48
2018-11-13T06:17:59.413Z,14.48
2018-11-13T06:19:12.990Z,14.5
2018-11-13T06:20:27.608Z,14.49
2018-11-13T06:21:42.109Z,14.5
2018-11-13T06:23:13.800Z,14.49
2018-11-13T06:24:27.849Z,14.47
2018-11-13T06:25:42.876Z,14.48
2018-11-13T06:27:12.808Z,14.48
2018-11-13T06:28:28.467Z,14.47
2018-11-13T06:29:43.989Z,14.49
2018-11-13T06:30:58.839Z,14.48
2018-11-13T06:32:13.959Z,14.49
2018-11-13T06:33:29.797Z,14.49
2018-11-13T06:34:45.229Z,14.47
2018-11-13T06:35:59.575Z,14.45
2018-11-13T06:37:29.137Z,14.42
2018-11-13T06:38:44.121Z,14.37
2018-11-13T06:39:59.759Z,14.32
2018-11-13T06:41:13.584Z,14.29
2018-11-13T06:42:28.469Z,14.25
2018-11-13T06:43:43.144Z,14.25
2018-11-13T06:44:57.858Z,14.21
2018-11-13T06:46:12.777Z,14.2
2018-11-13T06:47:27.181Z,14.21
2018-11-13T06:48:41.802Z,14.2
2018-11-13T06:49:56.587Z,14.2
2018-11-13T06:51:10.438Z,14.2
2018-11-13T06:52:25.657Z,14.21
2018-11-13T06:53:40.021Z,14.23
2018-11-13T06:54:54.074Z,14.23
2018-11-13T06:56:09.555Z,14.22
2018-11-13T06:57:24.676Z,14.23
2018-11-13T06:58:39.164Z,14.25
2018-11-13T06:59:54.003Z,14.23
2018-11-13T07:01:09.043Z,14.25
2018-11-13T07:02:23.404Z,14.24
2018-11-13T07:03:38.259Z,14.26
2018-11-13T07:04:53.218Z,14.25
2018-11-13T07:06:07.527Z,14.25
2018-11-13T07:07:21.846Z,14.25
2018-11-13T07:08:36.988Z,14.2
2018-11-13T07:09:51.598Z,14.21
2018-11-13T07:11:06.888Z,14.21
2018-11-13T07:12:20.519Z,14.22
2018-11-13T07:13:35.117Z,14.22
2018-11-13T07:14:49.745Z,14.22
2018-11-13T07:16:04.353Z,14.22
2018-11-13T07:17:19.479Z,14.21
2018-11-13T07:18:34.297Z,14.21
2018-11-13T07:19:49.220Z,14.2
2018-11-13T07:21:04.185Z,14.2
2018-11-13T07:22:18.813Z,14.24
2018-11-13T07:23:33.727Z,14.22
2018-11-13T07:24:48.073Z,14.2
2018-11-13T07:26:03.143Z,14.21
2018-11-13T07:27:18.423Z,14.23
2018-11-13T07:28:33.218Z,14.23
2018-11-13T07:29:48.390Z,14.25
2018-11-13T07:31:02.771Z,14.26
2018-11-13T07:32:17.711Z,14.25
2018-11-13T07:33:32.680Z,14.26
2018-11-13T07:34:47.249Z,14.22
2018-11-13T07:36:02.276Z,14.21
2018-11-13T07:37:16.362Z,14.23
2018-11-13T07:38:30.957Z,14.22
2018-11-13T07:39:45.295Z,14.22
2018-11-13T07:41:00.113Z,14.21
2018-11-13T07:42:15.870Z,14.21
2018-11-13T07:43:29.715Z,14.21
2018-11-13T07:44:44.060Z,14.21
2018-11-13T07:45:58.152Z,14.2
2018-11-13T07:47:12.998Z,14.19
2018-11-13T07:48:28.081Z,14.18
2018-11-13T07:49:42.405Z,14.18
2018-11-13T07:50:57.149Z,14.19
2018-11-13T07:52:11.710Z,14.21
2018-11-13T07:53:26.072Z,14.18
2018-11-13T07:54:40.963Z,14.18
2018-11-13T07:55:56.236Z,14.17
2018-11-13T07:57:10.412Z,14.19
2018-11-13T07:58:25.066Z,14.19
2018-11-13T07:59:39.672Z,14.21
2018-11-13T08:00:54.633Z,14.2
2018-11-13T08:02:09.635Z,14.21
2018-11-13T08:03:24.041Z,14.21
2018-11-13T08:04:39.534Z,14.21
2018-11-13T08:05:54.388Z,14.22
2018-11-13T08:07:09.710Z,14.23
2018-11-13T08:08:24.629Z,14.24
2018-11-13T08:09:39.232Z,14.26
2018-11-13T08:10:53.597Z,14.29
2018-11-13T08:12:08.070Z,14.3
2018-11-13T08:13:23.062Z,14.33
2018-11-13T08:14:38.249Z,14.36
2018-11-13T08:15:52.634Z,14.37
2018-11-13T08:17:07.884Z,14.41
2018-11-13T08:18:22.904Z,14.43
2018-11-13T08:19:38.769Z,14.47
2018-11-13T08:20:53.691Z,14.5
2018-11-13T08:22:23.835Z,14.52
2018-11-13T08:23:38.708Z,14.57
2018-11-13T08:24:53.622Z,14.6
2018-11-13T08:26:07.996Z,14.64
2018-11-13T08:27:22.401Z,14.67
2018-11-13T08:28:37.646Z,14.68
2018-11-13T08:29:52.852Z,14.68
2018-11-13T08:31:07.489Z,14.69
2018-11-13T08:32:22.424Z,14.67
2018-11-13T08:33:36.922Z,14.65
2018-11-13T08:34:51.681Z,14.62
2018-11-13T08:36:07.336Z,14.6
2018-11-13T08:37:22.495Z,14.63
2018-11-13T08:38:36.598Z,14.66
2018-11-13T08:39:51.241Z,14.7
2018-11-13T08:41:05.861Z,14.73
2018-11-13T08:42:20.263Z,14.77
2018-11-13T08:43:35.107Z,14.77
2018-11-13T08:44:49.679Z,14.8
2018-11-13T08:46:04.276Z,14.83
2018-11-13T08:47:18.884Z,14.86
2018-11-13T08:48:33.224Z,14.87
2018-11-13T08:49:48.186Z,14.87
2018-11-13T08:51:02.807Z,14.87
2018-11-13T08:52:17.446Z,14.87
2018-11-13T08:53:32.049Z,14.86
2018-11-13T08:54:46.241Z,14.84
2018-11-13T08:56:01.181Z,14.83
2018-11-13T08:57:15.540Z,14.79
2018-11-13T08:58:29.889Z,14.76
2018-11-13T08:59:45.383Z,14.72
2018-11-13T09:01:00.082Z,14.68
2018-11-13T09:02:14.230Z,14.68
2018-11-13T09:03:29.134Z,14.66
2018-11-13T09:04:43.738Z,14.66
2018-11-13T09:05:58.211Z,14.67
2018-11-13T09:07:12.871Z,14.71
2018-11-13T09:08:27.777Z,14.75
2018-11-13T09:09:42.403Z,14.74
2018-11-13T09:11:11.747Z,14.77
2018-11-13T09:12:26.604Z,14.8
2018-11-13T09:13:41.921Z,14.82
2018-11-13T09:14:56.318Z,14.81
2018-11-13T09:16:10.422Z,14.81
2018-11-13T09:17:25.591Z,14.8
2018-11-13T09:18:40.249Z,14.8
2018-11-13T09:19:55.320Z,14.83
2018-11-13T09:21:10.268Z,14.85
2018-11-13T09:22:24.102Z,14.84
2018-11-13T09:23:39.349Z,14.84
2018-11-13T09:24:54.238Z,14.87
2018-11-13T09:26:08.838Z,14.89
2018-11-13T09:27:23.484Z,14.89
2018-11-13T09:28:37.716Z,14.9
2018-11-13T09:29:52.221Z,14.94
2018-11-13T09:31:07.567Z,14.99
2018-11-13T09:32:22.896Z,15.04
2018-11-13T09:33:37.612Z,15.04
2018-11-13T09:34:52.331Z,15.07
2018-11-13T09:36:06.764Z,15.08
2018-11-13T09:37:21.721Z,15.08
2018-11-13T09:38:36.894Z,15.07
2018-11-13T09:39:52.214Z,15.08
2018-11-13T09:41:06.804Z,15.05
2018-11-13T09:42:21.256Z,15.07
2018-11-13T09:43:35.866Z,15.1
2018-11-13T09:44:50.063Z,15.12
2018-11-13T09:46:06.706Z,15.16
2018-11-13T09:47:21.463Z,15.18
2018-11-13T09:48:35.914Z,15.21
2018-11-13T09:49:51.078Z,15.23
2018-11-13T09:51:05.740Z,15.24
2018-11-13T09:52:20.989Z,15.26
2018-11-13T09:53:36.103Z,15.3
2018-11-13T09:54:51.600Z,15.31
2018-11-13T09:56:06.224Z,15.29
2018-11-13T09:57:21.362Z,15.29
2018-11-13T09:58:36.845Z,15.3
2018-11-13T09:59:52.404Z,15.37
2018-11-13T10:01:08.864Z,15.41
2018-11-13T10:02:27.461Z,15.46
2018-11-13T10:03:49.452Z,15.56
2018-11-13T10:05:06.251Z,15.64
2018-11-13T10:06:23.889Z,15.69
2018-11-13T10:07:38.483Z,15.69
2018-11-13T10:08:52.562Z,15.66
2018-11-13T10:10:07.260Z,15.61
2018-11-13T10:11:22.730Z,15.55
2018-11-13T10:12:37.852Z,15.51
2018-11-13T10:13:52.474Z,15.48
2018-11-13T10:15:07.071Z,15.47
2018-11-13T10:16:22.058Z,15.44
2018-11-13T10:17:36.532Z,15.43
2018-11-13T10:18:52.555Z,15.41
2018-11-13T10:20:07.275Z,15.36
2018-11-13T10:21:22.205Z,15.33
2018-11-13T10:22:36.526Z,15.34
2018-11-13T10:23:51.681Z,15.37
2018-11-13T10:25:06.048Z,15.38
2018-11-13T10:26:20.891Z,15.39
2018-11-13T10:27:35.978Z,15.38
2018-11-13T10:28:50.236Z,15.38
2018-11-13T10:30:05.130Z,15.37
2018-11-13T10:31:19.306Z,15.35
2018-11-13T10:32:33.253Z,15.38
2018-11-13T10:33:47.894Z,15.43
2018-11-13T10:35:02.517Z,15.47
2018-11-13T10:36:16.884Z,15.5
2018-11-13T10:37:31.768Z,15.51
2018-11-13T10:38:45.925Z,15.53
2018-11-13T10:40:00.110Z,15.59
2018-11-13T10:41:15.271Z,15.66
2018-11-13T10:42:30.122Z,15.71
2018-11-13T10:43:45.309Z,15.74
2018-11-13T10:44:59.430Z,15.76
2018-11-13T10:46:14.317Z,15.78
2018-11-13T10:47:28.242Z,15.79
2018-11-13T10:48:42.925Z,15.81
2018-11-13T10:49:57.734Z,15.81
2018-11-13T10:51:12.540Z,15.82
2018-11-13T10:52:27.201Z,15.8
2018-11-13T10:53:41.035Z,15.77
2018-11-13T10:54:55.450Z,15.72
2018-11-13T10:56:10.113Z,15.71
2018-11-13T10:57:24.992Z,15.68
2018-11-13T10:58:39.635Z,15.66
2018-11-13T10:59:54.231Z,15.62
2018-11-13T11:01:08.608Z,15.59
2018-11-13T11:02:23.689Z,15.55
2018-11-13T11:03:38.671Z,15.51
2018-11-13T11:04:53.271Z,15.45
2018-11-13T11:06:07.374Z,15.37
2018-11-13T11:07:22.070Z,15.35
2018-11-13T11:08:36.580Z,15.29
2018-11-13T11:09:51.271Z,15.25
2018-11-13T11:11:06.267Z,15.25
2018-11-13T11:12:20.648Z,15.25
2018-11-13T11:13:36.131Z,15.22
2018-11-13T11:14:51.438Z,15.16
2018-11-13T11:16:05.964Z,15.15
2018-11-13T11:17:20.642Z,15.14
2018-11-13T11:18:35.158Z,15.13
2018-11-13T11:19:50.540Z,15.11
2018-11-13T11:21:05.166Z,15.18
2018-11-13T11:22:19.762Z,15.27
2018-11-13T11:23:34.966Z,15.38
2018-11-13T11:24:50.716Z,15.47
2018-11-13T11:26:06.375Z,15.55
2018-11-13T11:27:21.295Z,15.67
2018-11-13T11:28:36.508Z,15.73
2018-11-13T11:29:50.862Z,15.74
2018-11-13T11:31:05.508Z,15.72
2018-11-13T11:32:21.385Z,15.68
2018-11-13T11:33:36.103Z,15.63
2018-11-13T11:34:50.690Z,15.58
2018-11-13T11:36:05.301Z,15.55
2018-11-13T11:37:20.418Z,15.47
2018-11-13T11:38:35.304Z,15.44
2018-11-13T11:39:51.090Z,15.43
2018-11-13T11:41:05.712Z,15.43
2018-11-13T11:42:20.339Z,15.46
2018-11-13T11:43:35.239Z,15.48
2018-11-13T11:44:49.941Z,15.49
2018-11-13T11:46:04.811Z,15.52
2018-11-13T11:47:19.437Z,15.51
2018-11-13T11:48:34.377Z,15.49
2018-11-13T11:49:49.085Z,15.5
2018-11-13T11:51:04.082Z,15.53
2018-11-13T11:52:17.896Z,15.57
2018-11-13T11:53:31.718Z,15.57
2018-11-13T11:54:46.237Z,15.62
2018-11-13T11:56:00.422Z,15.74
2018-11-13T11:57:15.339Z,15.82
2018-11-13T11:58:30.230Z,15.84
2018-11-13T11:59:45.407Z,15.89
2018-11-13T12:01:00.537Z,15.97
2018-11-13T12:02:14.957Z,16.02
2018-11-13T12:03:30.345Z,16.05
2018-11-13T12:04:44.990Z,16.09
2018-11-13T12:05:59.349Z,16.16
2018-11-13T12:07:13.975Z,16.19
2018-11-13T12:08:28.603Z,16.2
2018-11-13T12:09:43.449Z,16.15
2018-11-13T12:10:57.868Z,16.15
2018-11-13T12:12:12.691Z,16.12
2018-11-13T12:13:27.676Z,16.11
2018-11-13T12:14:41.811Z,16.13
2018-11-13T12:15:56.740Z,16.15
2018-11-13T12:18:41.485Z,16.1
2018-11-13T12:19:57.117Z,16.07
2018-11-13T12:21:12.323Z,16.1
2018-11-13T12:22:26.766Z,16.12
2018-11-13T12:23:41.540Z,16.16
2018-11-13T12:24:56.177Z,16.16
2018-11-13T12:26:10.665Z,16.17
2018-11-13T12:27:25.646Z,16.16
2018-11-13T12:28:40.109Z,16.13
2018-11-13T12:29:54.747Z,16.13
2018-11-13T12:31:09.355Z,16.17
2018-11-13T12:32:24.523Z,16.17
2018-11-13T12:33:38.988Z,16.16
2018-11-13T12:34:53.978Z,16.1
2018-11-13T12:36:08.456Z,16.05
2018-11-13T12:37:22.830Z,15.99
2018-11-13T12:38:37.859Z,15.97
2018-11-13T12:39:52.880Z,15.96
2018-11-13T12:41:07.488Z,15.97
2018-11-13T12:42:21.815Z,15.99
2018-11-13T12:43:36.698Z,15.98
2018-11-13T12:44:50.985Z,15.98
2018-11-13T12:46:06.401Z,15.97
2018-11-13T12:47:20.815Z,15.97
2018-11-13T12:48:36.301Z,15.95
2018-11-13T12:49:51.034Z,15.97
2018-11-13T12:51:05.577Z,15.97
2018-11-13T12:52:20.264Z,16
2018-11-13T12:53:34.299Z,16.02
2018-11-13T12:54:48.407Z,16.03
2018-11-13T12:56:02.861Z,16.1
2018-11-13T12:57:17.773Z,16.14
2018-11-13T12:58:32.282Z,16.21
2018-11-13T12:59:46.930Z,16.26
2018-11-13T13:01:02.088Z,16.3
2018-11-13T13:02:17.215Z,16.29
2018-11-13T13:03:32.310Z,16.29
2018-11-13T13:04:47.499Z,16.29
2018-11-13T13:06:01.609Z,16.31
2018-11-13T13:07:16.205Z,16.36
2018-11-13T13:08:30.102Z,16.32
2018-11-13T13:09:45.370Z,16.31
2018-11-13T13:11:00.527Z,16.32
2018-11-13T13:12:14.927Z,16.3
2018-11-13T13:13:29.020Z,16.28
2018-11-13T13:14:43.171Z,16.25
2018-11-13T13:15:58.343Z,16.24
2018-11-13T13:17:12.939Z,16.21
2018-11-13T13:18:27.907Z,16.21
2018-11-13T13:19:42.326Z,16.17
2018-11-13T13:20:57.566Z,16.16
2018-11-13T13:22:12.929Z,16.21
2018-11-13T13:23:28.659Z,16.29
2018-11-13T13:24:43.559Z,16.31
2018-11-13T13:25:58.433Z,16.33
2018-11-13T13:27:13.360Z,16.35
2018-11-13T13:28:27.791Z,16.37
2018-11-13T13:29:42.708Z,16.39
2018-11-13T13:30:57.618Z,16.39
2018-11-13T13:32:11.793Z,16.38
2018-11-13T13:33:26.222Z,16.36
2018-11-13T13:34:41.416Z,16.36
2018-11-13T13:35:56.852Z,16.34
2018-11-13T13:37:11.238Z,16.33
2018-11-13T13:38:26.158Z,16.31
2018-11-13T13:39:40.978Z,16.34
2018-11-13T13:40:54.843Z,16.37
2018-11-13T13:42:09.760Z,16.4
2018-11-13T13:43:24.392Z,16.42
2018-11-13T13:44:39.714Z,16.41
2018-11-13T13:45:54.610Z,16.43
2018-11-13T13:47:08.930Z,16.45
2018-11-13T13:48:23.617Z,16.46
2018-11-13T13:49:37.981Z,16.5
2018-11-13T13:50:52.917Z,16.49
2018-11-13T13:52:07.397Z,16.49
2018-11-13T13:53:21.779Z,16.48
2018-11-13T13:54:37.017Z,16.5
2018-11-13T13:55:51.097Z,16.5
2018-11-13T13:57:06.048Z,16.53
2018-11-13T13:58:20.375Z,16.56
2018-11-13T13:59:35.123Z,16.58
2018-11-13T14:00:50.931Z,16.61
2018-11-13T14:02:06.157Z,16.66
2018-11-13T14:03:20.508Z,16.67
2018-11-13T14:04:37.369Z,16.63
2018-11-13T14:05:51.322Z,16.55
2018-11-13T14:07:07.147Z,16.47
2018-11-13T14:08:22.080Z,16.38
2018-11-13T14:09:36.867Z,16.27
2018-11-13T14:10:51.498Z,16.21
2018-11-13T14:12:05.600Z,16.16
2018-11-13T14:13:20.332Z,16.13
2018-11-13T14:14:34.850Z,16.11
2018-11-13T14:15:50.383Z,16.12
2018-11-13T14:17:09.738Z,16.12
2018-11-13T14:18:23.831Z,16.12
2018-11-13T14:19:38.483Z,16.12
2018-11-13T14:20:52.649Z,16.14
2018-11-13T14:22:07.975Z,16.13
2018-11-13T14:23:22.077Z,16.12
2018-11-13T14:24:36.207Z,16.12
2018-11-13T14:25:51.080Z,16.12
2018-11-13T14:27:05.737Z,16.1
2018-11-13T14:28:20.248Z,16.09
2018-11-13T14:29:34.806Z,16.05
2018-11-13T14:30:50.136Z,16.03
2018-11-13T14:32:05.663Z,15.99
2018-11-13T14:33:20.522Z,16
2018-11-13T14:34:34.875Z,15.98
2018-11-13T14:36:02.249Z,15.96
2018-11-13T14:37:16.959Z,15.92
2018-11-13T14:38:32.430Z,15.88
2018-11-13T14:39:46.555Z,15.89
2018-11-13T14:41:01.125Z,15.88
2018-11-13T14:42:15.570Z,15.88
2018-11-13T14:43:30.446Z,15.88
2018-11-13T14:44:45.353Z,15.87
2018-11-13T14:45:59.847Z,15.85
2018-11-13T14:47:14.808Z,15.83
2018-11-13T14:48:30.676Z,15.83
2018-11-13T14:49:45.562Z,15.81
2018-11-13T14:51:00.728Z,15.78
2018-11-13T14:52:15.761Z,15.73
2018-11-13T14:53:29.864Z,15.68
2018-11-13T14:54:44.814Z,15.65
2018-11-13T14:55:59.401Z,15.63
2018-11-13T14:57:14.073Z,15.62
2018-11-13T14:58:28.714Z,15.61
2018-11-13T14:59:43.411Z,15.6
2018-11-13T15:00:58.055Z,15.57
2018-11-13T15:02:13.158Z,15.56
2018-11-13T15:03:28.296Z,15.57
2018-11-13T15:04:42.908Z,15.58
2018-11-13T15:05:57.378Z,15.59
2018-11-13T15:07:11.933Z,15.6
2018-11-13T15:08:26.298Z,15.59
2018-11-13T15:09:42.258Z,15.6
2018-11-13T15:10:56.778Z,15.61
2018-11-13T15:12:11.683Z,15.6
2018-11-13T15:13:26.051Z,15.61
2018-11-13T15:14:40.151Z,15.58
2018-11-13T15:15:55.529Z,15.55
2018-11-13T15:17:09.648Z,15.52
2018-11-13T15:18:24.009Z,15.48
2018-11-13T15:19:38.889Z,15.46
2018-11-13T15:20:53.155Z,15.43
2018-11-13T15:22:07.832Z,15.39
2018-11-13T15:23:22.793Z,15.38
2018-11-13T15:24:37.704Z,15.35
2018-11-13T15:25:51.974Z,15.31
2018-11-13T15:27:06.834Z,15.3
2018-11-13T15:28:21.960Z,15.29
2018-11-13T15:29:37.150Z,15.26
2018-11-13T15:30:52.053Z,15.23
2018-11-13T15:32:07.137Z,15.21
2018-11-13T15:33:22.293Z,15.18
2018-11-13T15:34:36.975Z,15.16
2018-11-13T15:35:51.614Z,15.11
2018-11-13T15:37:06.486Z,15.05
2018-11-13T15:38:20.800Z,15
2018-11-13T15:39:35.448Z,14.95
2018-11-13T15:40:51.187Z,14.92
2018-11-13T15:42:06.487Z,14.89
2018-11-13T15:43:21.352Z,14.88
2018-11-13T15:44:36.671Z,14.88
2018-11-13T15:45:50.956Z,14.88
2018-11-13T15:47:06.324Z,14.87
2018-11-13T15:48:20.944Z,14.88
2018-11-13T15:49:35.090Z,14.87
2018-11-13T15:50:49.190Z,14.88
2018-11-13T15:52:03.125Z,14.83
2018-11-13T15:53:19.626Z,14.81
2018-11-13T15:54:34.417Z,14.75
2018-11-13T15:55:48.774Z,14.68
2018-11-13T15:57:03.341Z,14.59
2018-11-13T15:58:18.067Z,14.56
2018-11-13T15:59:33.493Z,14.51
2018-11-13T16:00:47.968Z,14.5
2018-11-13T16:02:01.891Z,14.47
2018-11-13T16:03:17.068Z,14.44
2018-11-13T16:04:32.281Z,14.44
2018-11-13T16:05:47.087Z,14.43
2018-11-13T16:07:01.731Z,14.46
2018-11-13T16:08:16.856Z,14.45
2018-11-13T16:09:31.494Z,14.46
2018-11-13T16:10:46.726Z,14.47